createdAt,value
2022-07-26T00:00:46.436Z,99248.31
2022-07-26T00:03:13.834Z,99254.06
2022-07-26T00:05:41.449Z,99248.78
2022-07-26T00:08:11.560Z,99240.25
2022-07-26T00:10:39.676Z,99245.97
2022-07-26T00:13:06.824Z,99246.00
2022-07-26T00:15:33.918Z,99244.19
2022-07-26T00:18:01.308Z,99240.16
2022-07-26T00:20:28.437Z,99242.88
2022-07-26T00:22:55.904Z,99235.84
2022-07-26T00:25:23.366Z,99232.22
2022-07-26T00:27:50.498Z,99226.03
2022-07-26T00:30:17.693Z,99219.66
2022-07-26T00:32:45.158Z,99225.34
2022-07-26T00:35:12.333Z,99221.09
2022-07-26T00:37:39.493Z,99218.97
2022-07-26T00:40:07.167Z,99220.44
2022-07-26T00:42:36.208Z,99223.34
2022-07-26T00:45:03.626Z,99219.44
2022-07-26T00:47:31.014Z,99218.44
2022-07-26T00:49:58.130Z,99226.94
2022-07-26T00:52:25.324Z,99229.53
2022-07-26T00:54:54.538Z,99233.41
2022-07-26T00:57:22.138Z,99209.34
2022-07-26T00:59:49.228Z,99214.75
2022-07-26T01:02:16.680Z,99215.47
2022-07-26T01:04:46.860Z,99207.25
2022-07-26T01:07:15.202Z,99198.59
2022-07-26T01:09:43.275Z,99195.44
2022-07-26T01:12:10.465Z,99202.66
2022-07-26T01:14:37.575Z,99194.34
2022-07-26T01:17:05.110Z,99195.47
2022-07-26T01:19:32.297Z,99195.03
2022-07-26T01:21:59.496Z,99195.81
2022-07-26T01:24:26.885Z,99193.50
2022-07-26T01:26:55.639Z,99189.56
2022-07-26T01:29:23.332Z,99187.72
2022-07-26T01:32:04.005Z,99195.59
2022-07-26T01:34:31.254Z,99176.47
2022-07-26T01:36:58.553Z,99173.69
2022-07-26T01:39:25.941Z,99172.34
2022-07-26T01:41:53.234Z,99157.59
2022-07-26T01:44:20.351Z,99166.84
2022-07-26T01:46:47.716Z,99158.50
2022-07-26T01:49:15.042Z,99161.03
2022-07-26T01:51:42.183Z,99157.56
2022-07-26T01:54:10.099Z,99153.75
2022-07-26T01:56:37.406Z,99153.31
2022-07-26T01:59:04.545Z,99154.97
2022-07-26T02:01:38.714Z,99156.09
2022-07-26T02:04:08.443Z,99150.59
2022-07-26T02:06:35.965Z,99157.94
2022-07-26T02:09:05.274Z,99158.44
2022-07-26T02:11:35.167Z,99156.13
2022-07-26T02:14:02.536Z,99151.94
2022-07-26T02:16:29.746Z,99159.50
2022-07-26T02:18:57.116Z,99158.41
2022-07-26T02:21:24.223Z,99165.19
2022-07-26T02:23:51.329Z,99174.38
2022-07-26T02:26:18.715Z,99176.91
2022-07-26T02:28:45.897Z,99174.75
2022-07-26T02:31:15.603Z,99171.31
2022-07-26T02:33:43.162Z,99169.63
2022-07-26T02:36:10.292Z,99169.34
2022-07-26T02:38:37.493Z,99163.31
2022-07-26T02:41:06.266Z,99166.31
2022-07-26T02:43:33.448Z,99172.28
2022-07-26T02:46:01.850Z,99177.97
2022-07-26T02:48:30.479Z,99174.91
2022-07-26T02:50:57.628Z,99170.22
2022-07-26T02:53:24.761Z,99162.87
2022-07-26T02:55:52.161Z,99160.97
2022-07-26T02:58:21.568Z,99164.44
2022-07-26T03:00:48.807Z,99159.78
2022-07-26T03:03:16.237Z,99170.63
2022-07-26T03:05:43.352Z,99161.94
2022-07-26T03:08:10.599Z,99158.28
2022-07-26T03:10:38.807Z,99165.75
2022-07-26T03:13:05.905Z,99170.59
2022-07-26T03:15:33.036Z,99169.28
2022-07-26T03:18:00.587Z,99169.56
2022-07-26T03:20:27.738Z,99170.13
2022-07-26T03:22:54.832Z,99171.78
2022-07-26T03:25:22.190Z,99173.38
2022-07-26T03:27:49.324Z,99175.50
2022-07-26T03:30:16.478Z,99177.44
2022-07-26T03:32:51.989Z,99181.00
2022-07-26T03:35:19.114Z,99170.59
2022-07-26T03:37:46.760Z,99166.75
2022-07-26T03:40:17.156Z,99175.59
2022-07-26T03:42:44.582Z,99170.66
2022-07-26T03:45:12.826Z,99155.84
2022-07-26T03:47:40.251Z,99160.75
2022-07-26T03:50:07.599Z,99144.66
2022-07-26T03:52:34.707Z,99148.19
2022-07-26T03:55:22.020Z,99146.53
2022-07-26T03:57:49.315Z,99138.88
2022-07-26T04:00:16.720Z,99137.63
2022-07-26T04:02:44.158Z,99138.22
2022-07-26T04:05:11.467Z,99133.25
2022-07-26T04:07:42.530Z,99142.13
2022-07-26T04:10:10.474Z,99129.12
2022-07-26T04:12:38.017Z,99122.97
2022-07-26T04:15:05.502Z,99123.91
2022-07-26T04:17:42.051Z,99122.38
2022-07-26T04:20:09.689Z,99121.00
2022-07-26T04:22:37.246Z,99128.47
2022-07-26T04:25:04.659Z,99132.91
2022-07-26T04:27:31.862Z,99126.56
2022-07-26T04:29:59.222Z,99125.72
2022-07-26T04:32:26.357Z,99128.06
2022-07-26T04:34:53.509Z,99141.50
2022-07-26T04:37:20.882Z,99184.69
2022-07-26T04:39:52.942Z,99262.66
2022-07-26T04:42:22.302Z,99275.78
2022-07-26T04:44:49.414Z,99209.28
2022-07-26T04:47:16.527Z,99208.37
2022-07-26T04:49:44.193Z,99231.78
2022-07-26T04:52:11.338Z,99212.72
2022-07-26T04:54:38.487Z,99235.31
2022-07-26T04:57:05.868Z,99205.84
2022-07-26T04:59:34.326Z,99201.63
2022-07-26T05:02:01.587Z,99195.72
2022-07-26T05:04:29.073Z,99197.03
2022-07-26T05:07:02.293Z,99191.50
2022-07-26T05:09:29.840Z,99194.63
2022-07-26T05:11:56.962Z,99164.00
2022-07-26T05:14:24.105Z,99164.84
2022-07-26T05:16:51.516Z,99177.56
2022-07-26T05:19:18.691Z,99177.66
2022-07-26T05:21:45.806Z,99172.63
2022-07-26T05:24:13.210Z,99168.94
2022-07-26T05:26:40.335Z,99178.37
2022-07-26T05:29:07.476Z,99172.59
2022-07-26T05:31:34.863Z,99175.00
2022-07-26T05:34:03.698Z,99174.69
2022-07-26T05:36:30.842Z,99174.88
2022-07-26T05:38:58.373Z,99175.22
2022-07-26T05:41:25.523Z,99167.47
2022-07-26T05:43:52.712Z,99168.13
2022-07-26T05:46:20.363Z,99168.75
2022-07-26T05:48:47.588Z,99158.19
2022-07-26T05:51:14.874Z,99164.56
2022-07-26T05:53:42.322Z,99167.09
2022-07-26T05:56:09.452Z,99160.41
2022-07-26T05:58:36.562Z,99168.72
2022-07-26T06:01:03.932Z,99165.56
2022-07-26T06:03:32.308Z,99160.56
2022-07-26T06:05:59.405Z,99170.22
2022-07-26T06:08:26.522Z,99171.91
2022-07-26T06:10:54.367Z,99172.94
2022-07-26T06:13:21.477Z,99168.25
2022-07-26T06:15:48.613Z,99183.31
2022-07-26T06:18:16.046Z,99201.53
2022-07-26T06:20:43.612Z,99185.28
2022-07-26T06:23:10.861Z,99185.03
2022-07-26T06:25:38.282Z,99174.53
2022-07-26T06:28:09.430Z,99175.25
2022-07-26T06:30:36.845Z,99196.41
2022-07-26T06:33:04.440Z,99186.34
2022-07-26T06:35:32.145Z,99185.34
2022-07-26T06:37:59.990Z,99198.66
2022-07-26T06:40:27.509Z,99192.19
2022-07-26T06:42:54.616Z,99193.25
2022-07-26T06:45:21.763Z,99193.72
2022-07-26T06:47:49.146Z,99195.69
2022-07-26T06:50:16.262Z,99188.06
2022-07-26T06:52:48.093Z,99170.72
2022-07-26T06:55:15.517Z,99169.78
2022-07-26T06:57:49.288Z,99174.66
2022-07-26T07:00:17.999Z,99178.72
2022-07-26T07:02:45.123Z,99169.31
2022-07-26T07:05:12.330Z,99172.78
2022-07-26T07:07:39.832Z,99167.50
2022-07-26T07:10:09.523Z,99156.97
2022-07-26T07:12:36.674Z,99156.13
2022-07-26T07:15:04.171Z,99156.41
2022-07-26T07:17:31.278Z,99147.63
2022-07-26T07:19:58.422Z,99170.59
2022-07-26T07:22:25.875Z,99172.72
2022-07-26T07:24:52.982Z,99156.56
2022-07-26T07:27:20.107Z,99171.91
2022-07-26T07:29:48.357Z,99165.88
2022-07-26T07:32:18.175Z,99162.94
2022-07-26T07:34:47.599Z,99154.63
2022-07-26T07:37:15.789Z,99184.16
2022-07-26T07:39:42.916Z,99167.84
2022-07-26T07:42:10.155Z,99167.63
2022-07-26T07:44:37.512Z,99159.56
2022-07-26T07:47:04.883Z,99173.28
2022-07-26T07:49:32.172Z,99167.53
2022-07-26T07:51:59.582Z,99175.41
2022-07-26T07:54:27.311Z,99191.44
2022-07-26T07:56:56.294Z,99204.09
2022-07-26T07:59:23.818Z,99192.00
2022-07-26T08:01:51.033Z,99205.34
2022-07-26T08:04:18.568Z,99216.75
2022-07-26T08:06:50.090Z,99225.00
2022-07-26T08:09:19.214Z,99207.91
2022-07-26T08:11:50.666Z,99213.25
2022-07-26T08:14:19.001Z,99193.59
2022-07-26T08:16:46.219Z,99197.84
2022-07-26T08:19:13.947Z,99186.31
2022-07-26T08:21:45.960Z,99193.50
2022-07-26T08:24:14.170Z,99169.56
2022-07-26T08:26:41.286Z,99192.69
2022-07-26T08:29:08.692Z,99195.91
2022-07-26T08:31:35.860Z,99192.63
2022-07-26T08:34:03.047Z,99168.81
2022-07-26T08:36:32.677Z,99168.16
2022-07-26T08:39:00.691Z,99163.84
2022-07-26T08:41:27.932Z,99172.78
2022-07-26T08:43:55.446Z,99151.59
2022-07-26T08:46:27.669Z,99170.03
2022-07-26T08:48:55.805Z,99167.91
2022-07-26T08:51:23.569Z,99169.00
2022-07-26T08:53:51.426Z,99171.72
2022-07-26T08:56:18.866Z,99180.06
2022-07-26T08:58:46.050Z,99178.91
2022-07-26T09:01:13.516Z,99154.03
2022-07-26T09:03:41.457Z,99172.56
2022-07-26T09:06:18.290Z,99188.41
2022-07-26T09:08:46.537Z,99194.09
2022-07-26T09:11:25.531Z,99195.97
2022-07-26T09:13:55.036Z,99193.97
2022-07-26T09:16:22.208Z,99200.59
2022-07-26T09:18:49.450Z,99230.59
2022-07-26T09:21:27.162Z,99244.13
2022-07-26T09:23:55.594Z,99229.84
2022-07-26T09:26:24.099Z,99253.63
2022-07-26T09:29:04.681Z,99277.53
2022-07-26T09:31:32.274Z,99297.22
2022-07-26T09:34:00.140Z,99312.28
2022-07-26T09:36:27.731Z,99334.38
2022-07-26T09:38:57.841Z,99347.31
2022-07-26T09:41:24.976Z,99366.06
2022-07-26T09:43:54.129Z,99364.31
2022-07-26T09:46:22.825Z,99340.03
2022-07-26T09:49:10.109Z,99309.41
2022-07-26T09:51:41.166Z,99323.97
2022-07-26T09:54:09.252Z,99334.09
2022-07-26T09:57:02.755Z,99357.97
2022-07-26T09:59:30.334Z,99374.00
2022-07-26T10:01:57.807Z,99346.31
2022-07-26T10:04:25.408Z,99326.66
2022-07-26T10:06:53.541Z,99314.41
2022-07-26T10:09:20.731Z,99315.97
2022-07-26T10:11:49.728Z,99325.06
2022-07-26T10:14:35.236Z,99329.03
2022-07-26T10:17:28.959Z,99349.84
2022-07-26T10:20:04.602Z,99372.22
2022-07-26T10:22:41.821Z,99371.66
2022-07-26T10:25:17.772Z,99366.00
2022-07-26T10:27:54.809Z,99376.37
2022-07-26T10:30:31.588Z,99383.87
2022-07-26T10:33:02.163Z,99383.50
2022-07-26T10:35:29.245Z,99389.38
2022-07-26T10:38:15.785Z,99386.28
2022-07-26T10:40:56.414Z,99382.19
2022-07-26T10:43:40.266Z,99382.00
2022-07-26T10:46:20.836Z,99387.94
2022-07-26T10:49:03.636Z,99389.47
2022-07-26T10:51:35.027Z,99386.19
2022-07-26T10:54:05.232Z,99381.59
2022-07-26T10:56:33.676Z,99381.97
2022-07-26T10:59:01.355Z,99394.00
2022-07-26T11:01:34.821Z,99397.59
2022-07-26T11:04:02.254Z,99409.94
2022-07-26T11:06:32.377Z,99396.25
2022-07-26T11:08:59.462Z,99393.72
2022-07-26T11:11:27.852Z,99376.22
2022-07-26T11:14:03.410Z,99389.53
2022-07-26T11:16:36.059Z,99397.66
2022-07-26T11:19:11.873Z,99376.69
2022-07-26T11:21:41.202Z,99375.22
2022-07-26T11:24:09.250Z,99378.41
2022-07-26T11:26:43.034Z,99373.38
2022-07-26T11:29:10.453Z,99389.91
2022-07-26T11:31:49.412Z,99388.66
2022-07-26T11:34:19.256Z,99376.41
2022-07-26T11:36:46.617Z,99386.63
2022-07-26T11:39:32.819Z,99381.94
2022-07-26T11:42:10.345Z,99380.66
2022-07-26T11:44:37.496Z,99375.97
2022-07-26T11:47:19.638Z,99366.66
2022-07-26T11:50:00.938Z,99364.81
2022-07-26T11:52:34.572Z,99371.59
2022-07-26T11:55:01.726Z,99355.53
2022-07-26T11:57:29.400Z,99350.88
2022-07-26T11:59:56.813Z,99361.25
2022-07-26T12:02:23.935Z,99391.34
2022-07-26T12:04:56.884Z,99389.56
2022-07-26T12:07:24.255Z,99378.84
2022-07-26T12:09:52.299Z,99365.56
2022-07-26T12:12:23.364Z,99357.19
2022-07-26T12:14:56.991Z,99352.03
2022-07-26T12:17:24.389Z,99345.53
2022-07-26T12:19:51.520Z,99345.44
2022-07-26T12:22:21.750Z,99353.16
2022-07-26T12:24:52.126Z,99346.31
2022-07-26T12:27:20.407Z,99346.09
2022-07-26T12:29:50.350Z,99346.06
2022-07-26T12:32:37.953Z,99355.06
2022-07-26T12:35:09.122Z,99350.41
2022-07-26T12:37:45.782Z,99351.66
2022-07-26T12:40:12.868Z,99343.91
2022-07-26T12:42:40.919Z,99353.97
2022-07-26T12:45:09.157Z,99360.16
2022-07-26T12:47:36.617Z,99364.00
2022-07-26T12:50:04.534Z,99369.34
2022-07-26T12:52:31.722Z,99356.34
2022-07-26T12:54:58.881Z,99363.94
2022-07-26T12:57:27.244Z,99337.00
2022-07-26T12:59:54.633Z,99334.38
2022-07-26T13:02:21.742Z,99351.47
2022-07-26T13:04:49.228Z,99332.41
2022-07-26T13:07:16.886Z,99336.56
2022-07-26T13:09:44.255Z,99326.53
2022-07-26T13:12:11.737Z,99333.19
2022-07-26T13:14:38.861Z,99338.19
2022-07-26T13:17:06.110Z,99328.63
2022-07-26T13:19:33.594Z,99333.44
2022-07-26T13:22:01.031Z,99340.00
2022-07-26T13:24:28.476Z,99333.75
2022-07-26T13:26:56.750Z,99351.25
2022-07-26T13:29:27.542Z,99348.38
2022-07-26T13:31:55.800Z,99344.81
2022-07-26T13:34:23.773Z,99350.88
2022-07-26T13:36:50.895Z,99346.37
2022-07-26T13:39:18.024Z,99339.72
2022-07-26T13:41:45.733Z,99336.34
2022-07-26T13:44:13.320Z,99346.16
2022-07-26T13:46:42.219Z,99351.28
2022-07-26T13:49:09.795Z,99348.34
2022-07-26T13:51:55.912Z,99361.56
2022-07-26T13:54:26.014Z,99365.19
2022-07-26T13:56:53.470Z,99355.53
2022-07-26T13:59:20.623Z,99360.81
2022-07-26T14:01:48.093Z,99367.31
2022-07-26T14:04:16.345Z,99369.88
2022-07-26T14:06:43.698Z,99365.97
2022-07-26T14:09:11.255Z,99364.56
2022-07-26T14:11:38.750Z,99361.56
2022-07-26T14:14:05.934Z,99359.16
2022-07-26T14:16:33.396Z,99365.06
2022-07-26T14:19:00.845Z,99372.69
2022-07-26T14:21:28.383Z,99349.19
2022-07-26T14:23:56.991Z,99343.63
2022-07-26T14:26:24.500Z,99350.84
2022-07-26T14:28:51.657Z,99350.94
2022-07-26T14:31:18.804Z,99359.13
2022-07-26T14:33:46.214Z,99358.09
2022-07-26T14:36:13.683Z,99365.66
2022-07-26T14:38:41.540Z,99360.47
2022-07-26T14:41:09.238Z,99368.75
2022-07-26T14:43:36.407Z,99361.97
2022-07-26T14:46:04.056Z,99354.75
2022-07-26T14:48:52.903Z,99351.81
2022-07-26T14:51:18.574Z,99360.19
2022-07-26T14:53:45.965Z,99361.44
2022-07-26T14:56:13.117Z,99358.22
2022-07-26T14:58:40.259Z,99353.75
2022-07-26T15:01:07.754Z,99338.87
2022-07-26T15:03:34.991Z,99354.09
2022-07-26T15:06:02.151Z,99347.84
2022-07-26T15:08:29.568Z,99340.25
2022-07-26T15:10:56.756Z,99349.03
2022-07-26T15:13:24.103Z,99338.37
2022-07-26T15:15:51.495Z,99337.53
2022-07-26T15:18:18.878Z,99332.69
2022-07-26T15:20:46.048Z,99338.22
2022-07-26T15:23:15.301Z,99330.97
2022-07-26T15:25:42.437Z,99340.06
2022-07-26T15:28:09.671Z,99317.63
2022-07-26T15:30:39.221Z,99319.94
2022-07-26T15:33:06.336Z,99320.31
2022-07-26T15:35:35.252Z,99318.13
2022-07-26T15:38:02.934Z,99309.50
2022-07-26T15:40:30.046Z,99317.91
2022-07-26T15:42:57.196Z,99310.88
2022-07-26T15:45:24.922Z,99312.09
2022-07-26T15:47:56.011Z,99312.75
2022-07-26T15:50:25.012Z,99313.84
2022-07-26T15:52:52.178Z,99321.13
2022-07-26T15:55:19.381Z,99317.03
2022-07-26T15:57:46.867Z,99319.41
2022-07-26T16:00:14.215Z,99312.16
2022-07-26T16:02:41.679Z,99312.53
2022-07-26T16:05:09.098Z,99321.47
2022-07-26T16:07:36.272Z,99306.63
2022-07-26T16:10:04.017Z,99300.91
2022-07-26T16:12:31.140Z,99302.75
2022-07-26T16:14:58.284Z,99298.88
2022-07-26T16:17:25.695Z,99310.19
2022-07-26T16:19:53.503Z,99308.16
2022-07-26T16:22:20.622Z,99313.50
2022-07-26T16:24:48.078Z,99316.06
2022-07-26T16:27:15.208Z,99303.50
2022-07-26T16:29:42.399Z,99317.88
2022-07-26T16:32:10.375Z,99321.09
2022-07-26T16:34:37.526Z,99328.88
2022-07-26T16:37:04.671Z,99343.34
2022-07-26T16:39:32.069Z,99335.34
2022-07-26T16:42:04.568Z,99336.53
2022-07-26T16:44:36.031Z,99340.69
2022-07-26T16:47:03.834Z,99321.16
2022-07-26T16:49:31.221Z,99317.25
2022-07-26T16:51:58.743Z,99325.94
2022-07-26T16:54:25.845Z,99320.31
2022-07-26T16:56:52.960Z,99322.94
2022-07-26T16:59:20.507Z,99330.81
2022-07-26T17:01:47.695Z,99333.81
2022-07-26T17:04:16.114Z,99324.16
2022-07-26T17:06:56.475Z,99327.25
2022-07-26T17:09:30.898Z,99315.22
2022-07-26T17:12:00.652Z,99330.41
2022-07-26T17:14:31.440Z,99330.47
2022-07-26T17:16:58.991Z,99328.78
2022-07-26T17:19:26.219Z,99329.84
2022-07-26T17:21:53.564Z,99328.84
2022-07-26T17:24:20.947Z,99331.91
2022-07-26T17:26:49.253Z,99325.66
2022-07-26T17:29:17.774Z,99333.34
2022-07-26T17:31:45.319Z,99330.87
2022-07-26T17:34:12.505Z,99339.84
2022-07-26T17:36:39.628Z,99327.47
2022-07-26T17:39:15.002Z,99346.56
2022-07-26T17:41:47.638Z,99343.56
2022-07-26T17:44:15.146Z,99342.19
2022-07-26T17:46:42.376Z,99349.00
2022-07-26T17:49:09.907Z,99343.22
2022-07-26T17:51:37.629Z,99349.12
2022-07-26T17:54:04.829Z,99348.97
2022-07-26T17:56:32.078Z,99357.12
2022-07-26T17:58:59.468Z,99355.22
2022-07-26T18:01:26.675Z,99362.28
2022-07-26T18:03:54.102Z,99358.41
2022-07-26T18:06:21.275Z,99362.28
2022-07-26T18:08:48.369Z,99354.13
2022-07-26T18:11:15.803Z,99362.06
2022-07-26T18:13:42.984Z,99363.59
2022-07-26T18:16:10.179Z,99359.91
2022-07-26T18:18:37.605Z,99365.28
2022-07-26T18:21:04.716Z,99366.16
2022-07-26T18:23:31.910Z,99355.50
2022-07-26T18:25:59.309Z,99356.69
2022-07-26T18:28:26.417Z,99352.00
2022-07-26T18:30:53.582Z,99360.16
2022-07-26T18:33:21.025Z,99366.66
2022-07-26T18:35:48.150Z,99369.44
2022-07-26T18:38:15.347Z,99360.47
2022-07-26T18:40:42.816Z,99359.84
2022-07-26T18:43:10.076Z,99362.91
2022-07-26T18:45:38.295Z,99363.44
2022-07-26T18:48:05.781Z,99375.37
2022-07-26T18:50:33.146Z,99380.31
2022-07-26T18:53:02.417Z,99387.03
2022-07-26T18:55:29.938Z,99390.81
2022-07-26T18:57:57.213Z,99401.75
2022-07-26T19:00:25.137Z,99401.97
2022-07-26T19:02:54.147Z,99399.59
2022-07-26T19:05:25.104Z,99394.44
2022-07-26T19:07:52.481Z,99382.75
2022-07-26T19:10:20.209Z,99393.59
2022-07-26T19:12:48.481Z,99397.66
2022-07-26T19:15:16.417Z,99405.50
2022-07-26T19:17:43.562Z,99404.75
2022-07-26T19:20:12.498Z,99396.03
2022-07-26T19:22:40.020Z,99393.63
2022-07-26T19:25:09.027Z,99398.22
2022-07-26T19:27:36.430Z,99409.41
2022-07-26T19:30:07.561Z,99408.59
2022-07-26T19:32:34.733Z,99404.13
2022-07-26T19:35:01.893Z,99411.16
2022-07-26T19:37:29.279Z,99419.47
2022-07-26T19:40:00.304Z,99411.22
2022-07-26T19:42:28.788Z,99412.03
2022-07-26T19:44:56.174Z,99416.94
2022-07-26T19:47:23.653Z,99411.00
2022-07-26T19:49:50.822Z,99423.81
2022-07-26T19:52:18.322Z,99417.59
2022-07-26T19:54:45.538Z,99421.22
2022-07-26T19:57:12.798Z,99421.59
2022-07-26T19:59:40.163Z,99412.13
2022-07-26T20:02:07.412Z,99423.88
2022-07-26T20:04:34.874Z,99422.50
2022-07-26T20:07:02.662Z,99422.47
2022-07-26T20:09:29.917Z,99418.09
2022-07-26T20:11:57.892Z,99423.09
2022-07-26T20:14:25.191Z,99427.53
2022-07-26T20:16:56.172Z,99423.91
2022-07-26T20:19:24.391Z,99410.69
2022-07-26T20:21:51.529Z,99424.03
2022-07-26T20:24:19.021Z,99434.56
2022-07-26T20:26:46.490Z,99436.22
2022-07-26T20:29:14.274Z,99444.81
2022-07-26T20:31:41.680Z,99444.41
2022-07-26T20:34:09.114Z,99447.63
2022-07-26T20:36:36.256Z,99455.75
2022-07-26T20:39:03.621Z,99440.88
2022-07-26T20:41:33.787Z,99449.63
2022-07-26T20:44:01.282Z,99454.34
2022-07-26T20:46:28.497Z,99452.72
2022-07-26T20:48:56.074Z,99453.00
2022-07-26T20:51:23.347Z,99455.53
2022-07-26T20:53:50.470Z,99461.25
2022-07-26T20:56:17.941Z,99457.84
2022-07-26T20:58:45.091Z,99458.50
2022-07-26T21:01:12.356Z,99454.19
2022-07-26T21:03:39.886Z,99460.25
2022-07-26T21:06:07.015Z,99454.22
2022-07-26T21:08:34.490Z,99449.53
2022-07-26T21:11:01.866Z,99449.25
2022-07-26T21:13:29.007Z,99462.38
2022-07-26T21:15:56.141Z,99450.72
2022-07-26T21:18:23.548Z,99448.91
2022-07-26T21:20:50.655Z,99452.75
2022-07-26T21:23:18.577Z,99459.28
2022-07-26T21:25:47.601Z,99458.22
2022-07-26T21:28:14.822Z,99461.72
2022-07-26T21:30:41.913Z,99473.50
2022-07-26T21:33:09.303Z,99477.84
2022-07-26T21:35:36.427Z,99483.47
2022-07-26T21:38:03.771Z,99474.16
2022-07-26T21:40:31.145Z,99474.13
2022-07-26T21:42:58.262Z,99482.34
2022-07-26T21:45:25.364Z,99487.50
2022-07-26T21:47:54.283Z,99488.75
2022-07-26T21:50:21.584Z,99485.34
2022-07-26T21:52:48.735Z,99489.38
2022-07-26T21:55:18.111Z,99480.34
2022-07-26T21:57:45.632Z,99498.44
2022-07-26T22:00:13.426Z,99503.38
2022-07-26T22:02:40.898Z,99498.56
2022-07-26T22:05:26.910Z,99494.16
2022-07-26T22:07:54.393Z,99494.59
2022-07-26T22:10:22.117Z,99499.44
2022-07-26T22:12:49.293Z,99496.94
2022-07-26T22:15:16.702Z,99502.59
2022-07-26T22:17:43.803Z,99500.38
2022-07-26T22:20:11.193Z,99501.41
2022-07-26T22:22:38.759Z,99499.34
2022-07-26T22:25:06.032Z,99501.84
2022-07-26T22:27:33.158Z,99495.47
2022-07-26T22:30:00.517Z,99507.25
2022-07-26T22:32:27.690Z,99507.13
2022-07-26T22:34:54.795Z,99499.16
2022-07-26T22:37:22.191Z,99504.16
2022-07-26T22:39:49.312Z,99513.25
2022-07-26T22:42:16.602Z,99522.22
2022-07-26T22:44:44.039Z,99521.09
2022-07-26T22:47:11.162Z,99515.06
2022-07-26T22:49:38.329Z,99522.41
2022-07-26T22:52:05.871Z,99516.25
2022-07-26T22:54:32.980Z,99510.59
2022-07-26T22:57:00.107Z,99511.28
2022-07-26T22:59:27.543Z,99518.34
2022-07-26T23:01:54.672Z,99521.28
2022-07-26T23:04:21.848Z,99526.19
2022-07-26T23:06:49.255Z,99514.81
2022-07-26T23:09:16.352Z,99520.28
2022-07-26T23:11:43.511Z,99520.59
2022-07-26T23:14:11.420Z,99519.78
2022-07-26T23:16:38.841Z,99517.00
2022-07-26T23:19:06.056Z,99518.31
2022-07-26T23:21:33.462Z,99515.19
2022-07-26T23:24:00.559Z,99514.38
2022-07-26T23:26:27.690Z,99507.91
2022-07-26T23:28:55.131Z,99522.47
2022-07-26T23:31:22.280Z,99519.91
2022-07-26T23:33:50.447Z,99516.19
2022-07-26T23:36:24.033Z,99517.38
2022-07-26T23:38:51.274Z,99516.44
2022-07-26T23:41:19.306Z,99527.78
2022-07-26T23:43:46.739Z,99530.00
2022-07-26T23:46:13.941Z,99532.34
2022-07-26T23:48:41.239Z,99541.94
2022-07-26T23:51:08.652Z,99536.69
2022-07-26T23:53:35.791Z,99533.84
2022-07-26T23:56:02.945Z,99537.03
2022-07-26T23:58:30.345Z,99539.38
